createdAt,value
2022-11-01T00:03:52.652Z,100.00
2022-11-01T00:08:54.628Z,100.00
2022-11-01T00:13:56.210Z,100.00
2022-11-01T00:18:57.777Z,100.00
2022-11-01T00:23:59.270Z,100.00
2022-11-01T00:29:00.817Z,100.00
2022-11-01T00:34:05.632Z,100.00
2022-11-01T00:39:07.758Z,100.00
2022-11-01T00:44:09.203Z,100.00
2022-11-01T00:49:10.690Z,100.00
2022-11-01T00:54:12.167Z,100.00
2022-11-01T00:59:13.670Z,100.00
2022-11-01T01:04:15.168Z,100.00
2022-11-01T01:09:16.619Z,100.00
2022-11-01T01:14:18.079Z,100.00
2022-11-01T01:19:19.956Z,100.00
2022-11-01T01:24:21.744Z,100.00
2022-11-01T01:29:23.346Z,100.00
2022-11-01T01:34:24.787Z,100.00
2022-11-01T01:39:26.286Z,100.00
2022-11-01T01:44:56.727Z,100.00
2022-11-01T01:50:07.488Z,100.00
2022-11-01T01:55:11.132Z,100.00
2022-11-01T02:00:13.277Z,100.00
2022-11-01T02:05:35.329Z,100.00
2022-11-01T02:10:37.387Z,100.00
2022-11-01T02:15:50.276Z,100.00
2022-11-01T02:21:16.054Z,100.00
2022-11-01T02:26:36.886Z,100.00
2022-11-01T02:31:59.762Z,100.00
2022-11-01T02:37:37.142Z,100.00
2022-11-01T02:42:46.601Z,100.00
2022-11-01T02:47:48.065Z,100.00
2022-11-01T02:52:49.768Z,100.00
2022-11-01T02:57:51.217Z,100.00
2022-11-01T03:03:01.109Z,100.00
2022-11-01T03:08:07.450Z,100.00
2022-11-01T03:13:32.605Z,100.00
2022-11-01T03:18:39.142Z,100.00
2022-11-01T03:23:47.111Z,100.00
2022-11-01T03:28:56.940Z,100.00
2022-11-01T03:34:03.059Z,100.00
2022-11-01T03:39:15.203Z,100.00
2022-11-01T03:44:17.386Z,100.00
2022-11-01T03:49:19.596Z,100.00
2022-11-01T03:54:21.360Z,100.00
2022-11-01T03:59:26.096Z,100.00
2022-11-01T04:04:27.529Z,100.00
2022-11-01T04:09:28.986Z,100.00
2022-11-01T04:14:49.250Z,100.00
2022-11-01T04:20:09.144Z,100.00
2022-11-01T04:25:10.633Z,100.00
2022-11-01T04:30:12.392Z,100.00
2022-11-01T04:35:13.985Z,100.00
2022-11-01T04:40:15.552Z,100.00
2022-11-01T04:45:17.082Z,100.00
2022-11-01T04:50:20.312Z,100.00
2022-11-01T04:55:21.770Z,100.00
2022-11-01T05:00:23.637Z,100.00
2022-11-01T05:05:25.092Z,100.00
2022-11-01T05:10:26.592Z,100.00
2022-11-01T05:15:28.167Z,100.00
2022-11-01T05:20:30.721Z,100.00
2022-11-01T05:25:37.023Z,100.00
2022-11-01T05:30:40.531Z,100.00
2022-11-01T05:35:41.972Z,100.00
2022-11-01T05:40:43.505Z,100.00
2022-11-01T05:45:44.952Z,100.00
2022-11-01T05:50:47.100Z,100.00
2022-11-01T05:55:48.661Z,100.00
2022-11-01T06:00:50.178Z,100.00
2022-11-01T06:05:51.678Z,100.00
2022-11-01T06:11:00.288Z,100.00
2022-11-01T06:16:04.463Z,100.00
2022-11-01T06:21:06.095Z,100.00
2022-11-01T06:26:07.652Z,100.00
2022-11-01T06:31:09.115Z,100.00
2022-11-01T06:36:10.596Z,100.00
2022-11-01T06:41:12.057Z,100.00
2022-11-01T06:46:13.612Z,100.00
2022-11-01T06:51:15.159Z,100.00
2022-11-01T06:56:16.664Z,100.00
2022-11-01T07:01:19.195Z,100.00
2022-11-01T07:06:21.954Z,100.00
2022-11-01T07:11:27.419Z,100.00
2022-11-01T07:16:32.672Z,100.00
2022-11-01T07:21:34.152Z,100.00
2022-11-01T07:26:35.598Z,100.00
2022-11-01T07:31:38.917Z,100.00
2022-11-01T07:36:40.388Z,100.00
2022-11-01T07:41:42.044Z,100.00
2022-11-01T07:46:43.518Z,100.00
2022-11-01T07:51:45.021Z,100.00
2022-11-01T07:56:47.873Z,100.00
2022-11-01T08:01:49.460Z,100.00
2022-11-01T08:06:52.256Z,100.00
2022-11-01T08:11:54.000Z,100.00
2022-11-01T08:17:01.907Z,100.00
2022-11-01T08:22:03.457Z,100.00
2022-11-01T08:27:04.921Z,100.00
2022-11-01T08:32:06.392Z,98.53
2022-11-01T08:37:07.869Z,98.19
2022-11-01T08:42:09.686Z,96.91
2022-11-01T08:47:11.657Z,94.73
2022-11-01T08:52:13.279Z,94.92
2022-11-01T08:57:16.076Z,93.44
2022-11-01T09:02:17.855Z,92.39
2022-11-01T09:07:20.338Z,91.33
2022-11-01T09:12:24.807Z,90.14
2022-11-01T09:17:26.553Z,90.40
2022-11-01T09:22:28.962Z,90.21
2022-11-01T09:27:30.794Z,90.32
2022-11-01T09:32:32.369Z,89.38
2022-11-01T09:37:34.036Z,89.57
2022-11-01T09:42:40.206Z,88.71
2022-11-01T09:47:46.106Z,87.34
2022-11-01T09:52:49.169Z,86.72
2022-11-01T09:58:30.196Z,85.72
2022-11-01T10:03:54.255Z,84.94
2022-11-01T10:09:22.125Z,84.15
2022-11-01T10:15:00.523Z,83.61
2022-11-01T10:20:04.303Z,83.88
2022-11-01T10:25:26.297Z,83.45
2022-11-01T10:30:31.444Z,83.56
2022-11-01T10:35:41.607Z,82.01
2022-11-01T10:41:29.280Z,80.43
2022-11-01T10:46:43.958Z,81.34
2022-11-01T10:51:48.244Z,81.38
2022-11-01T10:56:53.503Z,81.69
2022-11-01T11:01:56.043Z,80.09
2022-11-01T11:06:57.759Z,80.12
2022-11-01T11:12:05.123Z,78.35
2022-11-01T11:17:26.040Z,75.96
2022-11-01T11:22:27.731Z,74.33
2022-11-01T11:27:32.882Z,74.79
2022-11-01T11:32:38.825Z,74.61
2022-11-01T11:37:49.711Z,73.03
2022-11-01T11:43:15.000Z,72.97
2022-11-01T11:48:21.926Z,70.59
2022-11-01T11:53:24.510Z,71.39
2022-11-01T11:58:41.310Z,70.45
2022-11-01T12:04:05.992Z,70.76
2022-11-01T12:09:34.670Z,67.77
2022-11-01T12:14:38.783Z,69.67
2022-11-01T12:19:40.245Z,70.43
2022-11-01T12:24:50.747Z,70.98
2022-11-01T12:30:00.938Z,69.42
2022-11-01T12:35:07.143Z,69.90
2022-11-01T12:40:19.012Z,69.16
2022-11-01T12:46:09.554Z,68.52
2022-11-01T12:51:10.931Z,69.26
2022-11-01T12:56:13.137Z,70.60
2022-11-01T13:01:53.692Z,68.34
2022-11-01T13:07:14.016Z,68.30
2022-11-01T13:12:49.085Z,68.39
2022-11-01T13:18:08.947Z,68.21
2022-11-01T13:23:34.201Z,67.86
2022-11-01T13:28:41.392Z,68.58
2022-11-01T13:34:08.352Z,69.24
2022-11-01T13:39:38.073Z,67.95
2022-11-01T13:44:48.783Z,67.82
2022-11-01T13:50:24.124Z,67.88
2022-11-01T13:55:34.838Z,67.93
2022-11-01T14:00:45.812Z,68.89
2022-11-01T14:06:11.705Z,69.33
2022-11-01T14:11:34.392Z,70.46
2022-11-01T14:16:35.890Z,69.58
2022-11-01T14:21:46.778Z,70.35
2022-11-01T14:27:19.036Z,71.14
2022-11-01T14:32:23.876Z,71.20
2022-11-01T14:37:29.061Z,70.70
2022-11-01T14:42:39.001Z,69.70
2022-11-01T14:47:41.149Z,70.37
2022-11-01T14:52:49.253Z,70.92
2022-11-01T14:57:50.956Z,70.17
2022-11-01T15:02:52.828Z,71.17
2022-11-01T15:07:59.190Z,72.43
2022-11-01T15:13:02.350Z,72.33
2022-11-01T15:18:06.380Z,72.98
2022-11-01T15:23:11.608Z,73.86
2022-11-01T15:28:22.552Z,74.74
2022-11-01T15:33:31.568Z,75.81
2022-11-01T15:38:35.742Z,75.75
2022-11-01T15:43:37.362Z,77.06
2022-11-01T15:48:39.140Z,77.73
2022-11-01T15:53:43.043Z,78.27
2022-11-01T15:58:54.244Z,79.56
2022-11-01T16:04:09.960Z,79.84
2022-11-01T16:09:18.606Z,80.52
2022-11-01T16:14:37.122Z,81.47
2022-11-01T16:19:48.441Z,82.63
2022-11-01T16:24:50.179Z,83.56
2022-11-01T16:29:52.868Z,84.44
2022-11-01T16:35:00.183Z,85.32
2022-11-01T16:40:22.496Z,86.58
2022-11-01T16:45:23.995Z,87.49
2022-11-01T16:50:25.522Z,88.85
2022-11-01T16:55:28.531Z,89.25
2022-11-01T17:00:31.644Z,89.55
2022-11-01T17:05:33.191Z,89.50
2022-11-01T17:10:34.646Z,89.68
2022-11-01T17:15:41.759Z,90.57
2022-11-01T17:20:44.642Z,91.05
2022-11-01T17:25:51.283Z,92.19
2022-11-01T17:30:53.384Z,93.11
2022-11-01T17:35:54.886Z,93.59
2022-11-01T17:40:56.931Z,93.84
2022-11-01T17:45:59.810Z,96.13
2022-11-01T17:51:01.886Z,98.52
2022-11-01T17:56:03.579Z,98.94
2022-11-01T18:01:05.412Z,98.90
2022-11-01T18:06:07.122Z,99.54
2022-11-01T18:11:11.217Z,100.00
2022-11-01T18:16:34.098Z,100.00
2022-11-01T18:21:45.383Z,100.00
2022-11-01T18:26:46.914Z,100.00
2022-11-01T18:32:16.888Z,100.00
2022-11-01T18:37:39.231Z,100.00
2022-11-01T18:42:42.131Z,100.00
2022-11-01T18:47:53.301Z,100.00
2022-11-01T18:53:10.549Z,100.00
2022-11-01T18:58:21.130Z,100.00
2022-11-01T19:03:25.324Z,100.00
2022-11-01T19:08:27.280Z,98.95
2022-11-01T19:13:34.032Z,98.43
2022-11-01T19:18:40.706Z,99.81
2022-11-01T19:23:54.876Z,99.79
2022-11-01T19:28:57.648Z,99.76
2022-11-01T19:34:03.092Z,99.69
2022-11-01T19:39:21.008Z,99.57
2022-11-01T19:44:24.557Z,98.45
2022-11-01T19:49:30.121Z,98.73
2022-11-01T19:54:36.226Z,98.12
2022-11-01T19:59:37.726Z,98.21
2022-11-01T20:04:39.178Z,99.20
2022-11-01T20:09:40.975Z,99.35
2022-11-01T20:14:42.454Z,100.00
2022-11-01T20:19:45.172Z,100.00
2022-11-01T20:24:47.169Z,100.00
2022-11-01T20:29:48.806Z,100.00
2022-11-01T20:34:50.629Z,99.24
2022-11-01T20:39:52.055Z,100.00
2022-11-01T20:44:53.556Z,99.42
2022-11-01T20:49:55.066Z,100.00
2022-11-01T20:54:57.722Z,100.00
2022-11-01T20:59:59.336Z,100.00
2022-11-01T21:05:14.375Z,100.00
2022-11-01T21:10:35.657Z,100.00
2022-11-01T21:15:39.430Z,100.00
2022-11-01T21:20:44.630Z,100.00
2022-11-01T21:25:46.861Z,100.00
2022-11-01T21:30:48.442Z,100.00
2022-11-01T21:35:53.079Z,100.00
2022-11-01T21:40:54.554Z,100.00
2022-11-01T21:45:56.172Z,100.00
2022-11-01T21:50:57.794Z,100.00
2022-11-01T21:55:59.251Z,100.00
2022-11-01T22:01:00.809Z,100.00
2022-11-01T22:06:02.314Z,100.00
2022-11-01T22:11:03.830Z,100.00
2022-11-01T22:16:05.736Z,100.00
2022-11-01T22:21:07.215Z,100.00
2022-11-01T22:26:08.730Z,100.00
2022-11-01T22:31:10.472Z,100.00
2022-11-01T22:36:21.150Z,100.00
2022-11-01T22:41:22.625Z,100.00
2022-11-01T22:46:53.582Z,100.00
2022-11-01T22:52:24.466Z,100.00
2022-11-01T22:57:31.935Z,100.00
2022-11-01T23:02:37.483Z,100.00
2022-11-01T23:07:47.726Z,100.00
2022-11-01T23:13:10.869Z,100.00
2022-11-01T23:18:16.214Z,100.00
2022-11-01T23:23:21.053Z,100.00
2022-11-01T23:28:23.469Z,100.00
2022-11-01T23:33:32.468Z,100.00
2022-11-01T23:38:45.892Z,100.00
2022-11-01T23:43:47.884Z,100.00
2022-11-01T23:48:50.152Z,100.00
2022-11-01T23:53:54.127Z,100.00
2022-11-01T23:59:00.633Z,100.00
